sensor_id;sensor_type;location;lat;lon;timestamp;temperature;humidity
72919;SHT30;68407;55.694;26.994;2023-07-22T00:00:15;14.2;81.1
72919;SHT30;68407;55.694;26.994;2023-07-22T00:05:25;14.2;81
72919;SHT30;68407;55.694;26.994;2023-07-22T00:10:40;14.2;80.8
72919;SHT30;68407;55.694;26.994;2023-07-22T00:15:39;14.1;81
72919;SHT30;68407;55.694;26.994;2023-07-22T00:20:57;13.9;81.5
72919;SHT30;68407;55.694;26.994;2023-07-22T00:25:35;13.9;81.8
72919;SHT30;68407;55.694;26.994;2023-07-22T00:30:57;13.8;82
72919;SHT30;68407;55.694;26.994;2023-07-22T00:35:15;13.8;81.9
72919;SHT30;68407;55.694;26.994;2023-07-22T00:40:15;13.8;81.9
72919;SHT30;68407;55.694;26.994;2023-07-22T00:45:37;13.7;82.1
72919;SHT30;68407;55.694;26.994;2023-07-22T00:50:17;13.7;82.1
72919;SHT30;68407;55.694;26.994;2023-07-22T00:55:57;13.7;82
72919;SHT30;68407;55.694;26.994;2023-07-22T01:00:35;13.6;82.1
72919;SHT30;68407;55.694;26.994;2023-07-22T01:05:35;13.5;82.4
72919;SHT30;68407;55.694;26.994;2023-07-22T01:10:39;13.5;82.7
72919;SHT30;68407;55.694;26.994;2023-07-22T01:15:15;13.5;82.5
72919;SHT30;68407;55.694;26.994;2023-07-22T01:20:31;13.4;82.7
72919;SHT30;68407;55.694;26.994;2023-07-22T01:25:35;13.4;83.1
72919;SHT30;68407;55.694;26.994;2023-07-22T01:30:57;13.3;83.1
72919;SHT30;68407;55.694;26.994;2023-07-22T01:35:15;13.2;83.4
72919;SHT30;68407;55.694;26.994;2023-07-22T01:40:19;13.2;83.7
72919;SHT30;68407;55.694;26.994;2023-07-22T01:45:57;13.2;83.8
72919;SHT30;68407;55.694;26.994;2023-07-22T01:50:43;13.2;83.7
72919;SHT30;68407;55.694;26.994;2023-07-22T01:55:15;13.1;83.7
72919;SHT30;68407;55.694;26.994;2023-07-22T02:00:33;13.1;83.6
72919;SHT30;68407;55.694;26.994;2023-07-22T02:05:49;13.2;83.6
72919;SHT30;68407;55.694;26.994;2023-07-22T02:10:21;13.1;83.6
72919;SHT30;68407;55.694;26.994;2023-07-22T02:15:29;13.2;83.4
72919;SHT30;68407;55.694;26.994;2023-07-22T02:20:57;13.2;83.3
72919;SHT30;68407;55.694;26.994;2023-07-22T02:25:49;13.4;83.3
72919;SHT30;68407;55.694;26.994;2023-07-22T02:30:33;13.7;82.6
72919;SHT30;68407;55.694;26.994;2023-07-22T02:35:35;13.9;81.9
72919;SHT30;68407;55.694;26.994;2023-07-22T02:40:49;14;81.5
72919;SHT30;68407;55.694;26.994;2023-07-22T02:45:19;14.1;81
72919;SHT30;68407;55.694;26.994;2023-07-22T02:50:25;14.3;80.7
72919;SHT30;68407;55.694;26.994;2023-07-22T02:55:43;14.5;80.4
72919;SHT30;68407;55.694;26.994;2023-07-22T03:00:49;14.6;79.8
72919;SHT30;68407;55.694;26.994;2023-07-22T03:05:57;14.7;79.4
72919;SHT30;68407;55.694;26.994;2023-07-22T03:10:31;14.7;79.2
72919;SHT30;68407;55.694;26.994;2023-07-22T03:15:15;14.7;79
72919;SHT30;68407;55.694;26.994;2023-07-22T03:20:27;14.7;79.1
72919;SHT30;68407;55.694;26.994;2023-07-22T03:25:57;14.8;79
72919;SHT30;68407;55.694;26.994;2023-07-22T03:30:43;15;78.9
72919;SHT30;68407;55.694;26.994;2023-07-22T03:35:49;15.1;78.6
72919;SHT30;68407;55.694;26.994;2023-07-22T03:40:49;15.1;78.4
72919;SHT30;68407;55.694;26.994;2023-07-22T03:45:43;15;78.2
72919;SHT30;68407;55.694;26.994;2023-07-22T03:50:31;14.8;79.1
72919;SHT30;68407;55.694;26.994;2023-07-22T03:55:19;14.7;79.6
72919;SHT30;68407;55.694;26.994;2023-07-22T04:00:57;14.8;79.4
72919;SHT30;68407;55.694;26.994;2023-07-22T04:05:57;15;79.2
72919;SHT30;68407;55.694;26.994;2023-07-22T04:10:57;15.3;78.8
72919;SHT30;68407;55.694;26.994;2023-07-22T04:15:57;15.6;77.8
72919;SHT30;68407;55.694;26.994;2023-07-22T04:20:43;15.9;77
72919;SHT30;68407;55.694;26.994;2023-07-22T04:25:15;16.3;76.4
72919;SHT30;68407;55.694;26.994;2023-07-22T04:30:53;16.7;75.7
72919;SHT30;68407;55.694;26.994;2023-07-22T04:35:58;17;75.1
72919;SHT30;68407;55.694;26.994;2023-07-22T04:40:18;17.3;74.7
72919;SHT30;68407;55.694;26.994;2023-07-22T04:45:15;17.6;73.4
72919;SHT30;68407;55.694;26.994;2023-07-22T04:50:57;17.8;72.9
72919;SHT30;68407;55.694;26.994;2023-07-22T04:55:15;18.1;71.6
72919;SHT30;68407;55.694;26.994;2023-07-22T05:00:19;18.3;71.7
72919;SHT30;68407;55.694;26.994;2023-07-22T05:05:25;18.5;71.4
72919;SHT30;68407;55.694;26.994;2023-07-22T05:10:39;18.6;71.4
72919;SHT30;68407;55.694;26.994;2023-07-22T05:15:27;18.7;70.5
72919;SHT30;68407;55.694;26.994;2023-07-22T05:20:43;19;70.3
72919;SHT30;68407;55.694;26.994;2023-07-22T05:25:19;19.1;70.4
72919;SHT30;68407;55.694;26.994;2023-07-22T05:30:15;19.4;69.5
72919;SHT30;68407;55.694;26.994;2023-07-22T05:35:25;19.6;68.9
72919;SHT30;68407;55.694;26.994;2023-07-22T05:40:19;19.9;69.4
72919;SHT30;68407;55.694;26.994;2023-07-22T05:45:31;20.1;68.5
72919;SHT30;68407;55.694;26.994;2023-07-22T05:50:35;20.2;68.1
72919;SHT30;68407;55.694;26.994;2023-07-22T05:55:57;20.3;67.3
72919;SHT30;68407;55.694;26.994;2023-07-22T06:00:35;20.4;67.2
72919;SHT30;68407;55.694;26.994;2023-07-22T06:05:15;20.5;66.9
72919;SHT30;68407;55.694;26.994;2023-07-22T06:10:39;21;66.8
72919;SHT30;68407;55.694;26.994;2023-07-22T06:15:15;21.5;64.8
72919;SHT30;68407;55.694;26.994;2023-07-22T06:20:31;21.4;64.3
72919;SHT30;68407;55.694;26.994;2023-07-22T06:25:57;21.6;63
72919;SHT30;68407;55.694;26.994;2023-07-22T06:30:57;21.7;62.7
72919;SHT30;68407;55.694;26.994;2023-07-22T06:35:25;21.8;61.8
72919;SHT30;68407;55.694;26.994;2023-07-22T06:40:19;21.9;60.9
72919;SHT30;68407;55.694;26.994;2023-07-22T06:45:55;21.7;60.8
72919;SHT30;68407;55.694;26.994;2023-07-22T06:50:23;21.8;60.8
72919;SHT30;68407;55.694;26.994;2023-07-22T06:55:13;21.6;60.3
72919;SHT30;68407;55.694;26.994;2023-07-22T07:00:33;21.8;60.3
72919;SHT30;68407;55.694;26.994;2023-07-22T07:05:55;22.1;59.2
72919;SHT30;68407;55.694;26.994;2023-07-22T07:10:25;22.1;58.9
72919;SHT30;68407;55.694;26.994;2023-07-22T07:15:45;22.3;59.9
72919;SHT30;68407;55.694;26.994;2023-07-22T07:20:43;22.6;57.7
72919;SHT30;68407;55.694;26.994;2023-07-22T07:25:15;22.8;56.2
72919;SHT30;68407;55.694;26.994;2023-07-22T07:30:57;22.8;57.3
72919;SHT30;68407;55.694;26.994;2023-07-22T07:35:13;22.9;56
72919;SHT30;68407;55.694;26.994;2023-07-22T07:40:13;22.9;56
72919;SHT30;68407;55.694;26.994;2023-07-22T07:45:31;23.1;55.4
72919;SHT30;68407;55.694;26.994;2023-07-22T07:50:57;23.7;54.5
72919;SHT30;68407;55.694;26.994;2023-07-22T07:55:31;24.3;54.1
72919;SHT30;68407;55.694;26.994;2023-07-22T08:00:49;25;52.7
72919;SHT30;68407;55.694;26.994;2023-07-22T08:05:57;25.1;49.5
72919;SHT30;68407;55.694;26.994;2023-07-22T08:10:43;24.7;51
72919;SHT30;68407;55.694;26.994;2023-07-22T08:15:29;24.6;52.1
72919;SHT30;68407;55.694;26.994;2023-07-22T08:20:25;24.4;50
72919;SHT30;68407;55.694;26.994;2023-07-22T08:25:57;24.1;54.4
72919;SHT30;68407;55.694;26.994;2023-07-22T08:30:57;24.2;55.3
72919;SHT30;68407;55.694;26.994;2023-07-22T08:35:57;24;55
72919;SHT30;68407;55.694;26.994;2023-07-22T08:40:57;24;55.3
72919;SHT30;68407;55.694;26.994;2023-07-22T08:45:59;23.8;54.9
72919;SHT30;68407;55.694;26.994;2023-07-22T08:50:15;23.5;55.6
72919;SHT30;68407;55.694;26.994;2023-07-22T08:55:43;23.3;56.2
72919;SHT30;68407;55.694;26.994;2023-07-22T09:00:57;23.1;56
72919;SHT30;68407;55.694;26.994;2023-07-22T09:05:39;23;56.1
72919;SHT30;68407;55.694;26.994;2023-07-22T09:10:31;22.8;56.3
72919;SHT30;68407;55.694;26.994;2023-07-22T09:15:57;22.6;56.7
72919;SHT30;68407;55.694;26.994;2023-07-22T09:20:31;22.6;56
72919;SHT30;68407;55.694;26.994;2023-07-22T09:25:26;22.8;55.3
72919;SHT30;68407;55.694;26.994;2023-07-22T09:30:26;22.7;55.2
72919;SHT30;68407;55.694;26.994;2023-07-22T09:35:44;22.6;56.6
72919;SHT30;68407;55.694;26.994;2023-07-22T09:40:39;22.6;57.1
72919;SHT30;68407;55.694;26.994;2023-07-22T09:45:46;22.5;56.3
72919;SHT30;68407;55.694;26.994;2023-07-22T09:50:35;22.7;55.3
72919;SHT30;68407;55.694;26.994;2023-07-22T09:55:22;22.8;54.8
72919;SHT30;68407;55.694;26.994;2023-07-22T10:00:19;22.5;55.6
72919;SHT30;68407;55.694;26.994;2023-07-22T10:05:19;22.4;55.7
72919;SHT30;68407;55.694;26.994;2023-07-22T10:10:26;22.4;55.6
72919;SHT30;68407;55.694;26.994;2023-07-22T10:15:39;22.3;56.8
72919;SHT30;68407;55.694;26.994;2023-07-22T10:20:57;22.5;57.1
72919;SHT30;68407;55.694;26.994;2023-07-22T10:25:14;22.4;56.3
72919;SHT30;68407;55.694;26.994;2023-07-22T10:30:19;22.3;57
72919;SHT30;68407;55.694;26.994;2023-07-22T10:35:40;22.5;56.9
72919;SHT30;68407;55.694;26.994;2023-07-22T10:40:25;22.7;56.5
72919;SHT30;68407;55.694;26.994;2023-07-22T10:45:32;22.9;56.1
72919;SHT30;68407;55.694;26.994;2023-07-22T10:50:50;23.1;55.6
72919;SHT30;68407;55.694;26.994;2023-07-22T10:56:05;23.3;55.7
72919;SHT30;68407;55.694;26.994;2023-07-22T11:00:28;23.6;55.4
72919;SHT30;68407;55.694;26.994;2023-07-22T11:05:19;23.5;56.5
72919;SHT30;68407;55.694;26.994;2023-07-22T11:10:57;24.1;56.3
72919;SHT30;68407;55.694;26.994;2023-07-22T11:15:33;24.5;54.5
72919;SHT30;68407;55.694;26.994;2023-07-22T11:20:31;24.4;55.5
72919;SHT30;68407;55.694;26.994;2023-07-22T11:25:17;24.3;57.1
72919;SHT30;68407;55.694;26.994;2023-07-22T11:30:51;23.7;56.9
72919;SHT30;68407;55.694;26.994;2023-07-22T11:35:15;22.4;60.8
72919;SHT30;68407;55.694;26.994;2023-07-22T11:40:13;21.1;64.6
72919;SHT30;68407;55.694;26.994;2023-07-22T11:45:43;20.5;66.9
72919;SHT30;68407;55.694;26.994;2023-07-22T11:50:51;20.1;69.4
72919;SHT30;68407;55.694;26.994;2023-07-22T11:55:59;19.8;71.3
72919;SHT30;68407;55.694;26.994;2023-07-22T12:01:01;19.6;72
72919;SHT30;68407;55.694;26.994;2023-07-22T12:05:29;19.3;74.3
72919;SHT30;68407;55.694;26.994;2023-07-22T12:10:15;18.8;76.5
72919;SHT30;68407;55.694;26.994;2023-07-22T12:16:00;19;77.1
72919;SHT30;68407;55.694;26.994;2023-07-22T12:20:23;19.4;76.2
72919;SHT30;68407;55.694;26.994;2023-07-22T12:25:51;19.6;75.3
72919;SHT30;68407;55.694;26.994;2023-07-22T12:30:59;19.7;75
72919;SHT30;68407;55.694;26.994;2023-07-22T12:35:27;20;74.7
72919;SHT30;68407;55.694;26.994;2023-07-22T12:40:13;20.2;74.6
72919;SHT30;68407;55.694;26.994;2023-07-22T12:45:13;20.3;74.2
72919;SHT30;68407;55.694;26.994;2023-07-22T12:50:59;20.4;73.3
72919;SHT30;68407;55.694;26.994;2023-07-22T12:55:59;20;74.5
72919;SHT30;68407;55.694;26.994;2023-07-22T13:00:59;20;75.8
72919;SHT30;68407;55.694;26.994;2023-07-22T13:05:51;19.9;75.2
72919;SHT30;68407;55.694;26.994;2023-07-22T13:10:37;19.9;74.7
72919;SHT30;68407;55.694;26.994;2023-07-22T13:15:13;20.1;74.4
72919;SHT30;68407;55.694;26.994;2023-07-22T13:20:21;20.1;73.7
72919;SHT30;68407;55.694;26.994;2023-07-22T13:25:31;19.8;75.2
72919;SHT30;68407;55.694;26.994;2023-07-22T13:30:41;19.5;76.1
72919;SHT30;68407;55.694;26.994;2023-07-22T13:35:19;19.3;76.8
72919;SHT30;68407;55.694;26.994;2023-07-22T13:40:59;19.1;77.6
72919;SHT30;68407;55.694;26.994;2023-07-22T13:45:13;19.1;78
72919;SHT30;68407;55.694;26.994;2023-07-22T13:50:41;19.1;78.4
72919;SHT30;68407;55.694;26.994;2023-07-22T13:55:13;19.1;77.6
72919;SHT30;68407;55.694;26.994;2023-07-22T14:00:41;18.8;78.3
72919;SHT30;68407;55.694;26.994;2023-07-22T14:05:41;18.5;79.1
72919;SHT30;68407;55.694;26.994;2023-07-22T14:10:59;18.4;80
72919;SHT30;68407;55.694;26.994;2023-07-22T14:15:19;18.5;80.3
72919;SHT30;68407;55.694;26.994;2023-07-22T14:20:32;18.5;80.1
72919;SHT30;68407;55.694;26.994;2023-07-22T14:25:13;18.4;80.4
72919;SHT30;68407;55.694;26.994;2023-07-22T14:30:13;18.4;81
72919;SHT30;68407;55.694;26.994;2023-07-22T14:35:33;18.7;80.1
72919;SHT30;68407;55.694;26.994;2023-07-22T14:40:42;18.6;80.1
72919;SHT30;68407;55.694;26.994;2023-07-22T14:45:59;18.5;80.7
72919;SHT30;68407;55.694;26.994;2023-07-22T14:50:29;18;82.2
72919;SHT30;68407;55.694;26.994;2023-07-22T14:55:19;17.7;83.7
72919;SHT30;68407;55.694;26.994;2023-07-22T15:00:59;17.6;83.9
72919;SHT30;68407;55.694;26.994;2023-07-22T15:05:13;17.4;83.4
72919;SHT30;68407;55.694;26.994;2023-07-22T15:10:33;17.3;83.1
72919;SHT30;68407;55.694;26.994;2023-07-22T15:15:59;17.4;82.4
72919;SHT30;68407;55.694;26.994;2023-07-22T15:20:59;17.4;82.6
72919;SHT30;68407;55.694;26.994;2023-07-22T15:25:25;17.3;83.9
72919;SHT30;68407;55.694;26.994;2023-07-22T15:30:13;16.9;84.6
72919;SHT30;68407;55.694;26.994;2023-07-22T15:35:59;16.6;85.1
72919;SHT30;68407;55.694;26.994;2023-07-22T15:40:25;16.5;84.9
72919;SHT30;68407;55.694;26.994;2023-07-22T15:45:33;16.6;84.7
72919;SHT30;68407;55.694;26.994;2023-07-22T15:50:13;16.8;84
72919;SHT30;68407;55.694;26.994;2023-07-22T15:55:51;16.8;83.6
72919;SHT30;68407;55.694;26.994;2023-07-22T16:00:33;16.7;84.1
72919;SHT30;68407;55.694;26.994;2023-07-22T16:05:59;16.8;83.3
72919;SHT30;68407;55.694;26.994;2023-07-22T16:10:59;16.7;83.5
72919;SHT30;68407;55.694;26.994;2023-07-22T16:15:59;16.5;83.9
72919;SHT30;68407;55.694;26.994;2023-07-22T16:20:28;16.5;83.6
72919;SHT30;68407;55.694;26.994;2023-07-22T16:25:35;16.4;83.4
72919;SHT30;68407;55.694;26.994;2023-07-22T16:30:59;16.3;83.6
72919;SHT30;68407;55.694;26.994;2023-07-22T16:35:13;16.3;84.2
72919;SHT30;68407;55.694;26.994;2023-07-22T16:40:21;16.3;84.4
72919;SHT30;68407;55.694;26.994;2023-07-22T16:45:45;16.3;84.4
72919;SHT30;68407;55.694;26.994;2023-07-22T16:50:51;16.3;84.6
72919;SHT30;68407;55.694;26.994;2023-07-22T16:56:01;16.3;84.6
72919;SHT30;68407;55.694;26.994;2023-07-22T17:00:35;16.4;84.7
72919;SHT30;68407;55.694;26.994;2023-07-22T17:05:51;16.3;84.7
72919;SHT30;68407;55.694;26.994;2023-07-22T17:10:13;16.3;84.8
72919;SHT30;68407;55.694;26.994;2023-07-22T17:16:01;16.3;84.8
72919;SHT30;68407;55.694;26.994;2023-07-22T17:20:45;16.4;84.6
72919;SHT30;68407;55.694;26.994;2023-07-22T17:26:01;16.3;84.6
72919;SHT30;68407;55.694;26.994;2023-07-22T17:31:01;16.4;84.5
72919;SHT30;68407;55.694;26.994;2023-07-22T17:35:45;16.5;84.1
72919;SHT30;68407;55.694;26.994;2023-07-22T17:40:19;16.4;84.1
72919;SHT30;68407;55.694;26.994;2023-07-22T17:45:27;16.4;84.7
72919;SHT30;68407;55.694;26.994;2023-07-22T17:51:01;16.4;84.9
72919;SHT30;68407;55.694;26.994;2023-07-22T17:56:01;16.5;84.8
72919;SHT30;68407;55.694;26.994;2023-07-22T18:01:01;16.5;84.6
72919;SHT30;68407;55.694;26.994;2023-07-22T18:06:01;16.5;84.3
72919;SHT30;68407;55.694;26.994;2023-07-22T18:10:45;16.5;84.7
72919;SHT30;68407;55.694;26.994;2023-07-22T18:15:19;16.5;84.8
72919;SHT30;68407;55.694;26.994;2023-07-22T18:20:37;16.5;84.8
72919;SHT30;68407;55.694;26.994;2023-07-22T18:26:01;16.5;84.8
72919;SHT30;68407;55.694;26.994;2023-07-22T18:30:43;16.7;84.3
72919;SHT30;68407;55.694;26.994;2023-07-22T18:35:27;16.8;83.6
72919;SHT30;68407;55.694;26.994;2023-07-22T18:41:01;16.9;83.7
72919;SHT30;68407;55.694;26.994;2023-07-22T18:45:19;17;83.5
72919;SHT30;68407;55.694;26.994;2023-07-22T18:50:43;17;83
72919;SHT30;68407;55.694;26.994;2023-07-22T18:55:27;17;83.1
72919;SHT30;68407;55.694;26.994;2023-07-22T19:00:15;16.9;83.5
72919;SHT30;68407;55.694;26.994;2023-07-22T19:05:43;16.8;83.7
72919;SHT30;68407;55.694;26.994;2023-07-22T19:10:43;16.8;83.9
72919;SHT30;68407;55.694;26.994;2023-07-22T19:15:13;16.7;84.2
72919;SHT30;68407;55.694;26.994;2023-07-22T19:20:31;16.7;84
72919;SHT30;68407;55.694;26.994;2023-07-22T19:25:13;16.5;84.2
72919;SHT30;68407;55.694;26.994;2023-07-22T19:30:27;16.4;84.4
72919;SHT30;68407;55.694;26.994;2023-07-22T19:35:31;16.3;84.6
72919;SHT30;68407;55.694;26.994;2023-07-22T19:40:41;16.4;84.2
72919;SHT30;68407;55.694;26.994;2023-07-22T19:46:00;16.4;83.7
72919;SHT30;68407;55.694;26.994;2023-07-22T19:50:13;16.4;83.6
72919;SHT30;68407;55.694;26.994;2023-07-22T19:55:35;16.3;84
72919;SHT30;68407;55.694;26.994;2023-07-22T20:00:41;16.5;83.5
72919;SHT30;68407;55.694;26.994;2023-07-22T20:05:45;16.4;83.6
72919;SHT30;68407;55.694;26.994;2023-07-22T20:10:19;16.4;83.8
72919;SHT30;68407;55.694;26.994;2023-07-22T20:15:49;16.3;84.1
72919;SHT30;68407;55.694;26.994;2023-07-22T20:20:59;16.3;83.8
72919;SHT30;68407;55.694;26.994;2023-07-22T20:25:21;16.2;83.9
72919;SHT30;68407;55.694;26.994;2023-07-22T20:30:50;16.1;84.8
72919;SHT30;68407;55.694;26.994;2023-07-22T20:35:59;16.2;84.6
72919;SHT30;68407;55.694;26.994;2023-07-22T20:40:14;16.1;84.8
72919;SHT30;68407;55.694;26.994;2023-07-22T20:45:31;16.1;84.6
72919;SHT30;68407;55.694;26.994;2023-07-22T20:50:35;16.2;84.4
72919;SHT30;68407;55.694;26.994;2023-07-22T20:56:00;16.1;84.4
72919;SHT30;68407;55.694;26.994;2023-07-22T21:00:27;16.1;84.4
72919;SHT30;68407;55.694;26.994;2023-07-22T21:05:13;16.1;84.4
72919;SHT30;68407;55.694;26.994;2023-07-22T21:10:59;16.1;84.1
72919;SHT30;68407;55.694;26.994;2023-07-22T21:15:49;16.1;84
72919;SHT30;68407;55.694;26.994;2023-07-22T21:20:59;16;84.1
72919;SHT30;68407;55.694;26.994;2023-07-22T21:25:36;15.8;84.2
72919;SHT30;68407;55.694;26.994;2023-07-22T21:30:35;15.6;84.6
72919;SHT30;68407;55.694;26.994;2023-07-22T21:35:19;15.4;85.2
72919;SHT30;68407;55.694;26.994;2023-07-22T21:40:59;15.4;85.2
72919;SHT30;68407;55.694;26.994;2023-07-22T21:45:45;15.2;85.5
72919;SHT30;68407;55.694;26.994;2023-07-22T21:50:49;15.2;86.2
72919;SHT30;68407;55.694;26.994;2023-07-22T21:55:59;15.3;86.2
72919;SHT30;68407;55.694;26.994;2023-07-22T22:00:46;15.3;86
72919;SHT30;68407;55.694;26.994;2023-07-22T22:05:36;15.4;85.8
72919;SHT30;68407;55.694;26.994;2023-07-22T22:10:32;15.4;85.8
72919;SHT30;68407;55.694;26.994;2023-07-22T22:16:00;15.4;86
72919;SHT30;68407;55.694;26.994;2023-07-22T22:20:59;15.5;86.2
72919;SHT30;68407;55.694;26.994;2023-07-22T22:25:59;15.6;86.2
72919;SHT30;68407;55.694;26.994;2023-07-22T22:30:59;15.6;86
72919;SHT30;68407;55.694;26.994;2023-07-22T22:35:59;15.8;85.9
72919;SHT30;68407;55.694;26.994;2023-07-22T22:40:13;16;85.6
72919;SHT30;68407;55.694;26.994;2023-07-22T22:45:37;16.1;85.1
72919;SHT30;68407;55.694;26.994;2023-07-22T22:50:59;16.1;84.9
72919;SHT30;68407;55.694;26.994;2023-07-22T22:55:41;16;85
72919;SHT30;68407;55.694;26.994;2023-07-22T23:00:14;16;85
72919;SHT30;68407;55.694;26.994;2023-07-22T23:06:00;16;84.9
72919;SHT30;68407;55.694;26.994;2023-07-22T23:10:19;15.9;85
72919;SHT30;68407;55.694;26.994;2023-07-22T23:15:33;15.7;85.3
72919;SHT30;68407;55.694;26.994;2023-07-22T23:20:19;15.5;85.7
72919;SHT30;68407;55.694;26.994;2023-07-22T23:25:59;15.4;85.9
72919;SHT30;68407;55.694;26.994;2023-07-22T23:30:39;15.4;85.7
72919;SHT30;68407;55.694;26.994;2023-07-22T23:35:50;15.3;85.8
72919;SHT30;68407;55.694;26.994;2023-07-22T23:40:36;15.2;86.2
72919;SHT30;68407;55.694;26.994;2023-07-22T23:45:19;15;86.7
72919;SHT30;68407;55.694;26.994;2023-07-22T23:50:14;15;87
72919;SHT30;68407;55.694;26.994;2023-07-22T23:55:13;15;87
